• Join FlightAware (Why Join?)
  • Login
  • US Flag 
08:25AM EDT


 

Airport Tracker/Info


-or-


 

Live Flight TrackerFlight Track Log ✈ BAW204 ✈ 27-Apr-2012 ✈ KMIA - EGLL / LHR

Flight Track Log - Related Links

Times and Time Zones

All times are in EDT time to prevent confusion due to time zone crossing. See the BAW204 flight status page for this flight to view local times or setup timezone preferences in your user account.

Time Position Orientation Groundspeed Altitude Reporting Facility
EDT Latitude Longitude Course Direction KTS MPH feet Rate Location/Type
10:41PM 25.7983 -80.2653 82° East 182 209 900  Level Miami Center
10:42PM 25.8058 -80.2078 83° East 199 229 2,100 1,320 Climbing Miami Center
10:43PM 25.8139 -80.1342 74° East 248 285 3,700 1,800 Climbing Miami Center
10:44PM 25.8275 -80.0814 61° Northeast 271 312 4,900 2,280 Climbing Miami Center
10:44PM 25.8408 -80.0542 56° Northeast 276 318 6,000 2,100 Climbing Miami Center
10:46PM 25.9078 -79.9428 56° Northeast 303 349 9,200 1,860 Climbing Miami Center
10:47PM 25.9533 -79.8678 56° Northeast 297 342 10,700 1,380 Climbing Miami Center
10:48PM 26.0053 -79.7811 56° Northeast 306 352 12,100 1,860 Climbing Miami Center
10:49PM 26.0614 -79.6900 52° Northeast 329 379 14,400 2,160 Climbing Miami Center
10:50PM 26.1236 -79.6011 44° Northeast 350 403 16,400 1,620 Climbing Miami Center
10:51PM 26.2003 -79.5172 45° Northeast 369 425 17,800 1,380 Climbing Miami Center
10:52PM 26.2622 -79.4469 45° Northeast 380 437 19,200 1,620 Climbing Miami Center
10:53PM 26.3558 -79.3422 46° Northeast 395 455 21,100 1,620 Climbing Miami Center
10:54PM 26.4389 -79.2467 46° Northeast 410 472 22,500 1,380 Climbing Miami Center
10:55PM 26.5242 -79.1483 47° Northeast 426 490 23,900 1,440 Climbing Miami Center
10:56PM 26.6069 -79.0500 44° Northeast 426 490 25,400 1,260 Climbing Miami Center
10:57PM 26.6983 -78.9494 45° Northeast 431 496 26,500 1,080 Climbing Miami Center
10:58PM 26.7897 -78.8464 46° Northeast 450 518 27,600 960 Climbing Miami Center
10:59PM 26.8831 -78.7386 47° Northeast 463 533 28,500 900 Climbing Miami Center
11:00PM 26.9742 -78.6303 46° Northeast 469 540 29,500 840 Climbing Miami Center
11:01PM 27.0736 -78.5153 45° Northeast 484 557 30,300 840 Climbing Miami Center
11:02PM 27.1794 -78.3953 47° Northeast 506 582 31,200 900 Climbing Miami Center
11:03PM 27.2831 -78.2706 47° Northeast 524 603 32,100 780 Climbing Miami Center
11:04PM 27.3864 -78.1478 46° Northeast 529 609 32,900 840 Climbing Miami Center
11:05PM 27.4942 -78.0225 45° Northeast 536 617 33,800 900 Climbing Miami Center
11:06PM 27.6058 -77.8969 48° Northeast 547 629 34,700 780 Climbing Miami Center
11:07PM 27.7067 -77.7689 45° Northeast 553 636 35,400 660 Climbing Miami Center
11:08PM 27.8244 -77.6361 49° Northeast 564 649 36,100 600 Climbing Miami Center
11:09PM 27.9233 -77.5050 44° Northeast 559 643 36,700 540 Climbing Miami Center
11:10PM 28.0469 -77.3717 47° Northeast 577 664 37,200 480 Climbing Miami Center
11:11PM 28.1603 -77.2356 50° Northeast 577 664 37,700 360 Climbing Miami Center
11:12PM 28.2606 -77.0989 44° Northeast 577 664 38,000 120 Climbing Miami Center
11:13PM 28.3736 -76.9742 46° Northeast 582 670 38,000  Level Miami Center
11:14PM 28.4989 -76.8278 48° Northeast 589 678 38,000  Level Miami Center
11:15PM 28.6072 -76.6906 45° Northeast 583 671 38,000  Level Miami Center
11:16PM 28.7167 -76.5667 60° Northeast 588 677 38,000  Level New York Oceanic (ODAPS)
11:16PM 28.7500 -76.5000 50° Northeast 587 676 38,000  Level New York Oceanic (ODAPS)
11:34PM 30.5833 -73.9500 52° Northeast 567 652 38,000  Level New York Oceanic (ODAPS)
11:37PM 30.8167 -73.6000 51° Northeast 563 648 38,000  Level New York Oceanic (ODAPS)
11:50PM 32.0500 -71.7833 53° Northeast 523 602 38,000  Level New York Oceanic (ODAPS)
11:57PM 32.7000 -70.7667 53° Northeast 524 603 38,000  Level New York Oceanic (ODAPS)
12:06AM 33.3000 -69.8167 53° Northeast 534 615 38,000  Level New York Oceanic (ODAPS)
12:17AM 34.4500 -67.9167 54° Northeast 537 618 38,000  Level New York Oceanic (ODAPS)
12:37AM 36.1667 -64.8833 56° Northeast 538 619 38,000  Level New York Oceanic (ODAPS)
12:58AM 37.8167 -61.7000 58° Northeast 539 620 38,000  Level New York Oceanic (ODAPS)
01:08AM 38.5000 -60.2667 360° North 533 613 38,000  Level New York Oceanic (ODAPS)
01:09AM 38.5000 -60.2667 51° Northeast 533 613 38,000  Level New York Oceanic (ODAPS)
01:18AM 39.5667 -58.5167 53° Northeast 528 608 38,000  Level New York Oceanic (ODAPS)
01:21AM 39.8000 -58.1167 52° Northeast 529 609 38,000  Level New York Oceanic (ODAPS)
01:38AM 41.2333 -55.6000 54° Northeast 528 608 38,000  Level New York Oceanic (ODAPS)
01:59AM 42.9167 -52.3000 56° Northeast 517 595 38,000  Level New York Oceanic (ODAPS)
02:13AM 44.0000 -50.0000 63° Northeast 505 581 38,000  Level New York Oceanic (ODAPS)
02:19AM 44.4000 -48.8833 64° Northeast 498 573 38,000  Level New York Oceanic (ODAPS)
02:27AM 44.8850 -47.4461 65° Northeast 498 573 38,000  Level FlightAware Transoceanic
02:28AM 44.9425 -47.2702 65° Northeast 498 573 38,000  Level FlightAware Transoceanic
02:29AM 44.9998 -47.0940 65° Northeast 498 573 38,000  Level FlightAware Transoceanic
02:30AM 45.0568 -46.9175 66° East 498 573 38,000  Level FlightAware Transoceanic
02:31AM 45.1136 -46.7406 66° East 498 573 38,000  Level FlightAware Transoceanic
02:32AM 45.1700 -46.5633 66° East 498 573 38,000  Level FlightAware Transoceanic
02:33AM 45.2262 -46.3857 66° East 498 573 38,000  Level FlightAware Transoceanic
02:34AM 45.2822 -46.2078 66° East 498 573 38,000  Level FlightAware Transoceanic
02:35AM 45.3378 -46.0295 66° East 498 573 38,000  Level FlightAware Transoceanic
02:36AM 45.3932 -45.8508 66° East 498 573 38,000  Level FlightAware Transoceanic
02:37AM 45.4482 -45.6718 66° East 498 573 38,000  Level FlightAware Transoceanic
02:38AM 45.5030 -45.4925 67° East 498 573 38,000  Level FlightAware Transoceanic
02:39AM 45.5575 -45.3128 67° East 498 573 38,000  Level FlightAware Transoceanic
02:40AM 45.6118 -45.1327 67° East 498 573 38,000  Level FlightAware Transoceanic
02:41AM 45.6657 -44.9523 67° East 498 573 38,000  Level FlightAware Transoceanic
02:42AM 45.7194 -44.7716 67° East 498 573 38,000  Level FlightAware Transoceanic
02:43AM 45.7728 -44.5905 67° East 498 573 38,000  Level FlightAware Transoceanic
02:44AM 45.8259 -44.4090 67° East 498 573 38,000  Level FlightAware Transoceanic
02:45AM 45.8787 -44.2273 67° East 498 573 38,000  Level FlightAware Transoceanic
02:46AM 45.9312 -44.0452 68° East 498 573 38,000  Level FlightAware Transoceanic
02:47AM 45.9835 -43.8627 68° East 498 573 38,000  Level FlightAware Transoceanic
02:48AM 46.0354 -43.6799 68° East 498 573 38,000  Level FlightAware Transoceanic
02:49AM 46.0870 -43.4967 68° East 498 573 38,000  Level FlightAware Transoceanic
02:50AM 46.1384 -43.3132 68° East 498 573 38,000  Level FlightAware Transoceanic
02:51AM 46.1894 -43.1294 68° East 498 573 38,000  Level FlightAware Transoceanic
02:52AM 46.2402 -42.9452 68° East 498 573 38,000  Level FlightAware Transoceanic
02:53AM 46.2907 -42.7607 68° East 498 573 38,000  Level FlightAware Transoceanic
02:54AM 46.3409 -42.5758 69° East 498 573 38,000  Level FlightAware Transoceanic
02:55AM 46.3907 -42.3906 69° East 498 573 38,000  Level FlightAware Transoceanic
02:56AM 46.4403 -42.2051 69° East 498 573 38,000  Level FlightAware Transoceanic
02:57AM 46.4896 -42.0192 69° East 498 573 38,000  Level FlightAware Transoceanic
02:58AM 46.5386 -41.8330 69° East 498 573 38,000  Level FlightAware Transoceanic
02:59AM 46.5872 -41.6464 69° East 498 573 38,000  Level FlightAware Transoceanic
03:00AM 46.6356 -41.4595 69° East 498 573 38,000  Level FlightAware Transoceanic
03:01AM 46.6837 -41.2723 70° East 498 573 38,000  Level FlightAware Transoceanic
03:02AM 46.7314 -41.0848 70° East 498 573 38,000  Level FlightAware Transoceanic
03:03AM 46.7789 -40.8969 70° East 498 573 38,000  Level FlightAware Transoceanic
03:04AM 46.8260 -40.7087 70° East 498 573 38,000  Level FlightAware Transoceanic
03:05AM 46.8728 -40.5202 70° East 498 573 38,000  Level FlightAware Transoceanic
03:06AM 46.9193 -40.3313 70° East 498 573 38,000  Level FlightAware Transoceanic
03:07AM 46.9655 -40.1421 68° East 498 573 38,000  Level FlightAware Transoceanic
03:08AM 47.0161 -39.9556 62° Northeast 498 573 38,000  Level FlightAware Transoceanic
03:09AM 47.0804 -39.7779 62° Northeast 498 573 38,000  Level FlightAware Transoceanic
03:10AM 47.1444 -39.5998 62° Northeast 498 573 38,000  Level FlightAware Transoceanic
03:11AM 47.2081 -39.4212 62° Northeast 498 573 38,000  Level FlightAware Transoceanic
03:12AM 47.2715 -39.2422 63° Northeast 498 573 38,000  Level FlightAware Transoceanic
03:13AM 47.3347 -39.0627 63° Northeast 498 573 38,000  Level FlightAware Transoceanic
03:14AM 47.3975 -38.8829 63° Northeast 498 573 38,000  Level FlightAware Transoceanic
03:15AM 47.4601 -38.7025 63° Northeast 498 573 38,000  Level FlightAware Transoceanic
03:16AM 47.5224 -38.5218 63° Northeast 498 573 38,000  Level FlightAware Transoceanic
03:17AM 47.5845 -38.3407 63° Northeast 498 573 38,000  Level FlightAware Transoceanic
03:18AM 47.6462 -38.1591 63° Northeast 498 573 38,000  Level FlightAware Transoceanic
03:19AM 47.7077 -37.9771 63° Northeast 498 573 38,000  Level FlightAware Transoceanic
03:20AM 47.7688 -37.7946 64° Northeast 498 573 38,000  Level FlightAware Transoceanic
03:21AM 47.8297 -37.6118 64° Northeast 498 573 38,000  Level FlightAware Transoceanic
03:22AM 47.8903 -37.4285 64° Northeast 498 573 38,000  Level FlightAware Transoceanic
03:23AM 47.9506 -37.2447 64° Northeast 498 573 38,000  Level FlightAware Transoceanic
03:24AM 48.0106 -37.0606 64° Northeast 498 573 38,000  Level FlightAware Transoceanic
03:25AM 48.0703 -36.8760 64° Northeast 498 573 38,000  Level FlightAware Transoceanic
03:26AM 48.1297 -36.6910 64° Northeast 498 573 38,000  Level FlightAware Transoceanic
03:27AM 48.1888 -36.5056 65° Northeast 498 573 38,000  Level FlightAware Transoceanic
03:28AM 48.2476 -36.3197 65° Northeast 498 573 38,000  Level FlightAware Transoceanic
03:29AM 48.3061 -36.1334 65° Northeast 498 573 38,000  Level FlightAware Transoceanic
03:30AM 48.3643 -35.9467 65° Northeast 498 573 38,000  Level FlightAware Transoceanic
03:31AM 48.4222 -35.7595 65° Northeast 498 573 38,000  Level FlightAware Transoceanic
03:32AM 48.4798 -35.5719 65° Northeast 498 573 38,000  Level FlightAware Transoceanic
03:33AM 48.5371 -35.3840 65° Northeast 498 573 38,000  Level FlightAware Transoceanic
03:34AM 48.5941 -35.1955 66° East 498 573 38,000  Level FlightAware Transoceanic
03:35AM 48.6508 -35.0067 66° East 498 573 38,000  Level FlightAware Transoceanic
03:36AM 48.7071 -34.8174 66° East 498 573 38,000  Level FlightAware Transoceanic
03:37AM 48.7632 -34.6277 66° East 498 573 38,000  Level FlightAware Transoceanic
03:38AM 48.8189 -34.4376 66° East 498 573 38,000  Level FlightAware Transoceanic
03:39AM 48.8744 -34.2471 66° East 498 573 38,000  Level FlightAware Transoceanic
03:40AM 48.9295 -34.0561 66° East 498 573 38,000  Level FlightAware Transoceanic
03:41AM 48.9843 -33.8647 67° East 498 573 38,000  Level FlightAware Transoceanic
03:42AM 49.0388 -33.6729 67° East 498 573 38,000  Level FlightAware Transoceanic
03:43AM 49.0930 -33.4807 67° East 498 573 38,000  Level FlightAware Transoceanic
03:44AM 49.1468 -33.2881 67° East 498 573 38,000  Level FlightAware Transoceanic
03:45AM 49.2003 -33.0950 67° East 498 573 38,000  Level FlightAware Transoceanic
03:46AM 49.2535 -32.9016 67° East 498 573 38,000  Level FlightAware Transoceanic
03:47AM 49.3064 -32.7077 67° East 498 573 38,000  Level FlightAware Transoceanic
03:48AM 49.3590 -32.5134 68° East 498 573 38,000  Level FlightAware Transoceanic
03:49AM 49.4112 -32.3186 68° East 498 573 38,000  Level FlightAware Transoceanic
03:50AM 49.4631 -32.1235 68° East 498 573 38,000  Level FlightAware Transoceanic
03:51AM 49.5147 -31.9280 68° East 498 573 38,000  Level FlightAware Transoceanic
03:52AM 49.5659 -31.7320 68° East 498 573 38,000  Level FlightAware Transoceanic
03:53AM 49.6168 -31.5356 68° East 498 573 38,000  Level FlightAware Transoceanic
03:54AM 49.6674 -31.3389 68° East 498 573 38,000  Level FlightAware Transoceanic
03:55AM 49.7177 -31.1417 69° East 498 573 38,000  Level FlightAware Transoceanic
03:56AM 49.7676 -30.9441 69° East 498 573 38,000  Level FlightAware Transoceanic
03:57AM 49.8171 -30.7461 69° East 498 573 38,000  Level FlightAware Transoceanic
03:58AM 49.8664 -30.5477 69° East 498 573 38,000  Level FlightAware Transoceanic
03:59AM 49.9153 -30.3489 69° East 498 573 38,000  Level FlightAware Transoceanic
04:00AM 49.9638 -30.1497 74° East 498 573 38,000 -120 Level FlightAware Transoceanic
04:01AM 50.0074 -29.9484 74° East  Level FlightAware Approximate
04:02AM 50.0374 -29.7405 74° East  Level FlightAware Approximate
04:03AM 50.0670 -29.5325 75° East  Level FlightAware Approximate
04:04AM 50.0963 -29.3242 75° East  Level FlightAware Approximate
04:05AM 50.1251 -29.1156 75° East  Level FlightAware Approximate
04:06AM 50.1536 -28.9067 75° East  Level FlightAware Approximate
04:07AM 50.1817 -28.6977 75° East  Level FlightAware Approximate
04:08AM 50.2095 -28.4883 75° East  Level FlightAware Approximate
04:09AM 50.2368 -28.2788 75° East  Level FlightAware Approximate
04:10AM 50.2638 -28.0690 76° East  Level FlightAware Approximate
04:11AM 50.2904 -27.8590 76° East  Level FlightAware Approximate
04:12AM 50.3167 -27.6487 76° East  Level FlightAware Approximate
04:13AM 50.3425 -27.4382 76° East  Level FlightAware Approximate
04:14AM 50.3680 -27.2275 76° East  Level FlightAware Approximate
04:15AM 50.3931 -27.0165 76° East  Level FlightAware Approximate
04:16AM 50.4178 -26.8053 76° East  Level FlightAware Approximate
04:17AM 50.4421 -26.5940 76° East  Level FlightAware Approximate
04:18AM 50.4660 -26.3823 77° East  Level FlightAware Approximate
04:19AM 50.4896 -26.1705 77° East  Level FlightAware Approximate
04:20AM 50.5128 -25.9585 77° East  Level FlightAware Approximate
04:21AM 50.5356 -25.7463 77° East  Level FlightAware Approximate
04:22AM 50.5580 -25.5338 77° East  Level FlightAware Approximate
04:23AM 50.5800 -25.3212 77° East  Level FlightAware Approximate
04:24AM 50.6016 -25.1083 77° East  Level FlightAware Approximate
04:25AM 50.6157 -24.8947 77° East  Level FlightAware Approximate
04:26AM 50.6430 -24.6834 78° East  Level FlightAware Approximate
04:27AM 50.6700 -24.4718 78° East  Level FlightAware Approximate
04:28AM 50.6966 -24.2599 78° East  Level FlightAware Approximate
04:29AM 50.7229 -24.0478 78° East  Level FlightAware Approximate
04:30AM 50.7487 -23.8355 78° East  Level FlightAware Approximate
04:31AM 50.7741 -23.6229 78° East  Level FlightAware Approximate
04:32AM 50.7992 -23.4102 79° East  Level FlightAware Approximate
04:33AM 50.8239 -23.1972 79° East  Level FlightAware Approximate
04:34AM 50.8482 -22.9839 79° East  Level FlightAware Approximate
04:35AM 50.8721 -22.7705 79° East  Level FlightAware Approximate
04:36AM 50.8956 -22.5568 79° East  Level FlightAware Approximate
04:37AM 50.9187 -22.3429 79° East  Level FlightAware Approximate
04:38AM 50.9414 -22.1288 79° East  Level FlightAware Approximate
04:39AM 50.9638 -21.9145 80° East  Level FlightAware Approximate
04:40AM 50.9857 -21.7000 80° East  Level FlightAware Approximate
04:41AM 51.0073 -21.4853 80° East  Level FlightAware Approximate
04:42AM 51.0284 -21.2704 80° East  Level FlightAware Approximate
04:43AM 51.0492 -21.0553 80° East  Level FlightAware Approximate
04:44AM 51.0695 -20.8400 80° East  Level FlightAware Approximate
04:45AM 51.0895 -20.6245 81° East  Level FlightAware Approximate
04:46AM 51.1091 -20.4088 81° East  Level FlightAware Approximate
04:47AM 51.1283 -20.1930 81° East  Level FlightAware Approximate
04:48AM 51.1470 -19.9770 81° East  Level FlightAware Approximate
04:49AM 51.1694 -19.7617 81° East  Level FlightAware Approximate
04:50AM 51.1913 -19.5462 81° East  Level FlightAware Approximate
04:51AM 51.2128 -19.3306 82° East  Level FlightAware Approximate
04:52AM 51.2340 -19.1147 82° East  Level FlightAware Approximate
04:53AM 51.2547 -18.8986 82° East  Level FlightAware Approximate
04:54AM 51.2751 -18.6824 82° East  Level FlightAware Approximate
04:55AM 51.2950 -18.4659 82° East  Level FlightAware Approximate
04:56AM 51.3146 -18.2493 82° East  Level FlightAware Approximate
04:57AM 51.3337 -18.0325 83° East  Level FlightAware Approximate
04:58AM 51.3525 -17.8155 83° East  Level FlightAware Approximate
04:59AM 51.3708 -17.5983 83° East  Level FlightAware Approximate
05:00AM 51.3888 -17.3810 83° East  Level FlightAware Approximate
05:01AM 51.4063 -17.1634 83° East  Level FlightAware Approximate
05:02AM 51.4235 -16.9458 83° East  Level FlightAware Approximate
05:03AM 51.4402 -16.7279 84° East  Level FlightAware Approximate
05:04AM 51.4565 -16.5099 84° East  Level FlightAware Approximate
05:05AM 51.4725 -16.2918 84° East  Level FlightAware Approximate
05:06AM 51.4880 -16.0735 84° East  Level FlightAware Approximate
05:07AM 51.5031 -15.8550 84° East  Level FlightAware Approximate
05:08AM 51.5178 -15.6364 85° East  Level FlightAware Approximate
05:09AM 51.5321 -15.4177 85° East  Level FlightAware Approximate
05:10AM 51.5460 -15.1988 85° East  Level FlightAware Approximate
05:11AM 51.5595 -14.9798 85° East  Level FlightAware Approximate
05:12AM 51.5726 -14.7607 85° East  Level FlightAware Approximate
05:13AM 51.5839 -14.5413 85° East  Level FlightAware Approximate
05:14AM 51.5948 -14.3217 86° East  Level FlightAware Approximate
05:15AM 51.6053 -14.1021 86° East  Level FlightAware Approximate
05:16AM 51.6154 -13.8823 86° East  Level FlightAware Approximate
05:17AM 51.6251 -13.6625 86° East  Level FlightAware Approximate
05:18AM 51.6344 -13.4425 86° East  Level FlightAware Approximate
05:19AM 51.6433 -13.2225 86° East  Level FlightAware Approximate
05:20AM 51.6517 -13.0024 87° East  Level FlightAware Approximate
05:21AM 51.6598 -12.7822 87° East  Level FlightAware Approximate
05:22AM 51.6674 -12.5619 87° East  Level FlightAware Approximate
05:23AM 51.6746 -12.3416 87° East  Level FlightAware Approximate
05:24AM 51.6814 -12.1212 87° East  Level FlightAware Approximate
05:25AM 51.6878 -11.9007 88° East  Level FlightAware Approximate
05:26AM 51.6938 -11.6802 88° East  Level FlightAware Approximate
05:27AM 51.6993 -11.4596 88° East  Level FlightAware Approximate
05:28AM 51.7045 -11.2389 88° East  Level FlightAware Approximate
05:29AM 51.7092 -11.0183 88° East  Level FlightAware Approximate
05:30AM 51.7136 -10.7975 88° East  Level FlightAware Approximate
05:31AM 51.7175 -10.5767 89° East  Level FlightAware Approximate
05:32AM 51.7210 -10.3559 89° East  Level FlightAware Approximate
05:33AM 51.7241 -10.1351 89° East  Level FlightAware Approximate
05:34AM 51.7267 -9.9142 89° East  Level FlightAware Approximate
05:35AM 51.7290 -9.6933 89° East  Level FlightAware Approximate
05:36AM 51.7308 -9.4724 90° East  Level FlightAware Approximate
05:37AM 51.7323 -9.2515 90° East  Level FlightAware Approximate
05:38AM 51.7333 -9.0306 90° East  Level FlightAware Approximate
05:39AM 51.7339 -8.8096 90° East  Level FlightAware Approximate
05:40AM 51.7341 -8.5887 90° East  Level FlightAware Approximate
05:41AM 51.7338 -8.3677 90° East  Level FlightAware Approximate
05:42AM 51.7332 -8.1468 91° East  Level FlightAware Approximate
05:43AM 51.7321 -7.9258 91° East  Level FlightAware Approximate
05:44AM 51.7307 -7.7049 91° East  Level FlightAware Approximate
05:45AM 51.7288 -7.4840 91° East  Level FlightAware Approximate
05:46AM 51.7265 -7.2631 91° East  Level FlightAware Approximate
05:47AM 51.7238 -7.0422 92° East  Level FlightAware Approximate
05:48AM 51.7206 -6.8214 92° East  Level FlightAware Approximate
05:49AM 51.7171 -6.6006 92° East  Level FlightAware Approximate
05:50AM 51.7136 -6.3798 92° East  Level FlightAware Approximate
05:51AM 51.7098 -6.1590 92° East  Level FlightAware Approximate
05:52AM 51.7055 -5.9383 93° East  Level FlightAware Approximate
05:53AM 51.7009 -5.7176 93° East  Level FlightAware Approximate
05:54AM 51.6958 -5.4970 93° East  Level FlightAware Approximate
05:55AM 51.6903 -5.2764 93° East  Level FlightAware Approximate
05:56AM 51.6843 -5.0559 94° East  Level FlightAware Approximate
05:57AM 51.6780 -4.8355 94° East  Level FlightAware Approximate
05:58AM 51.6713 -4.6150 94° East  Level FlightAware Approximate
05:59AM 51.6644 -4.3947 95° East  Level FlightAware Approximate
06:00AM 51.6569 -4.1744 95° East  Level FlightAware Approximate
06:01AM 51.6445 -3.9558 95° East  Level FlightAware Approximate
06:02AM 51.6275 -3.7384 95° East  Level FlightAware Approximate
06:03AM 51.6196 -3.5184 96° East  Level FlightAware Approximate
06:04AM 51.6000 -3.3017 93° East  Level FlightAware Approximate
06:05AM 51.5909 -3.0820 274° West  Level FlightAware Approximate
06:06AM 51.5831 -2.8623 274° West  Level FlightAware Approximate
06:07AM 51.5745 -2.6425 274° West  Level FlightAware Approximate
06:12AM 51.5949 -3.1666 102° East 397 457 27,000  Level FlightAware ADS-B
06:13AM 51.5846 -3.0881 102° East 372 428 27,000  Level FlightAware ADS-B
06:13AM 51.5716 -2.9926 102° East 362 417 27,000  Level FlightAware ADS-B
06:14AM 51.5603 -2.9092 102° East 360 414 27,000 -480 Level FlightAware ADS-B
06:15AM 51.5491 -2.8261 102° East 354 407 26,500 -1,260 Descending FlightAware ADS-B
06:15AM 51.5386 -2.7476 102° East 351 404 25,700 -1,560 Descending FlightAware ADS-B
06:16AM 51.5173 -2.5911 102° East 349 402 24,100 -1,500 Descending FlightAware ADS-B
06:17AM 51.5065 -2.5115 102° East 342 394 23,400 -1,440 Descending FlightAware ADS-B
06:17AM 51.4957 -2.4332 103° East 340 391 22,600 -1,500 Descending FlightAware ADS-B
06:18AM 51.4869 -2.3708 103° East 337 388 22,000 -1,500 Descending FlightAware ADS-B
06:18AM 51.4765 -2.2968 103° East 334 384 21,200 -1,500 Descending FlightAware ADS-B
06:19AM 51.4660 -2.2224 103° East 331 381 20,500 -1,380 Descending FlightAware ADS-B
06:19AM 51.4542 -2.1385 103° East 329 379 19,700 -1,380 Descending FlightAware ADS-B
06:20AM 51.4440 -2.0667 103° East 326 375 19,000 -1,380 Descending FlightAware ADS-B
06:20AM 51.4338 -1.9948 103° East 322 371 18,300 -1,380 Descending FlightAware ADS-B
06:21AM 51.4239 -1.9247 103° East 318 366 17,600 -1,440 Descending FlightAware ADS-B
06:21AM 51.4127 -1.8455 103° East 313 360 16,800 -1,380 Descending FlightAware ADS-B
06:22AM 51.4023 -1.7741 103° East 308 354 16,100 -1,320 Descending FlightAware ADS-B
06:22AM 51.3920 -1.7030 103° East 303 349 15,400 -1,380 Descending FlightAware ADS-B
06:23AM 51.3821 -1.6358 103° East 301 346 14,700 -1,380 Descending FlightAware ADS-B
06:23AM 51.3717 -1.5647 103° East 299 344 14,000 -1,140 Descending FlightAware ADS-B
06:24AM 51.3634 -1.5077 103° East 288 331 13,600 -780 Descending FlightAware ADS-B
06:24AM 51.3544 -1.4471 103° East 272 313 13,300 -540 Descending FlightAware ADS-B
06:25AM 51.3459 -1.3897 103° East 260 299 13,100 -300 Descending FlightAware ADS-B
06:25AM 51.3372 -1.3315 103° East 258 297 13,000 -120 Descending FlightAware ADS-B
06:26AM 51.3315 -1.2926 104° East 258 297 13,000  Level FlightAware ADS-B
06:26AM 51.3228 -1.2357 103° East 259 298 13,000  Level FlightAware ADS-B
06:27AM 51.3160 -1.1903 101° East 260 299 13,000  Level FlightAware ADS-B
06:27AM 51.3146 -1.1786 96° East 261 300 13,000  Level FlightAware ADS-B
06:27AM 51.3131 -1.1571 91° East 265 305 13,000 -180 Level FlightAware ADS-B
06:28AM 51.3123 -1.0977 91° East 268 308 12,900 -300 Descending FlightAware ADS-B
06:28AM 51.3118 -1.0378 91° East 263 303 12,700 -540 Descending FlightAware ADS-B
06:29AM 51.3113 -0.9799 91° East 262 302 12,400 -540 Descending FlightAware ADS-B
06:29AM 51.3107 -0.9217 91° East 262 302 12,200 -540 Descending FlightAware ADS-B
06:30AM 51.3102 -0.8640 91° East 260 299 11,900 -540 Descending FlightAware ADS-B
06:30AM 51.3095 -0.8051 91° East 258 297 11,700 -540 Descending FlightAware ADS-B
06:31AM 51.3089 -0.7478 91° East 258 297 11,400 -540 Descending FlightAware ADS-B
06:31AM 51.3082 -0.6908 91° East 254 292 11,200 -540 Descending FlightAware ADS-B
06:32AM 51.3075 -0.6345 91° East 252 290 10,900 -540 Descending FlightAware ADS-B
06:32AM 51.3067 -0.5776 91° East 253 291 10,700 -480 Descending FlightAware ADS-B
06:32AM 51.3062 -0.5329 91° East 252 290 10,500 -600 Descending FlightAware ADS-B
06:33AM 51.3055 -0.4771 92° East 249 287 10,200 -600 Descending FlightAware ADS-B
06:33AM 51.3051 -0.4581 94° East 248 285 10,100 -360 Descending FlightAware ADS-B
06:33AM 51.3046 -0.4465 98° East 247 284 10,100 -240 Level FlightAware ADS-B
06:34AM 51.3004 -0.3998 97° East 247 284 10,000 -120 Descending FlightAware ADS-B
06:34AM 51.2961 -0.3449 99° East 248 285 10,000  Level FlightAware ADS-B
06:34AM 51.2947 -0.3305 108° East 247 284 10,000  Level FlightAware ADS-B
06:34AM 51.2927 -0.3209 122° Southeast 244 281 10,000  Level FlightAware ADS-B
06:35AM 51.2888 -0.3109 139° Southeast 242 278 10,000  Level FlightAware ADS-B
06:35AM 51.2802 -0.2991 155° Southeast 242 278 10,000  Level FlightAware ADS-B
06:35AM 51.2732 -0.2939 167° South 243 280 10,000  Level FlightAware ADS-B
06:35AM 51.2660 -0.2913 183° South 243 280 10,000  Level FlightAware ADS-B
06:35AM 51.2553 -0.2922 199° South 245 282 10,000  Level FlightAware ADS-B
06:35AM 51.2480 -0.2962 211° Southwest 248 285 10,000  Level FlightAware ADS-B
06:35AM 51.2425 -0.3015 221° Southwest 250 288 10,000  Level FlightAware ADS-B
06:35AM 51.2384 -0.3072 232° Southwest 253 291 10,000  Level FlightAware ADS-B
06:35AM 51.2341 -0.3159 245° Southwest 255 293 10,000  Level FlightAware ADS-B
06:36AM 51.2305 -0.3282 257° West 257 296 10,000  Level FlightAware ADS-B
06:36AM 51.2292 -0.3371 266° West 259 298 10,000  Level FlightAware ADS-B
06:36AM 51.2289 -0.3440 274° West 261 300 10,000  Level FlightAware ADS-B
06:36AM 51.2293 -0.3525 283° West 263 303 10,000  Level FlightAware ADS-B
06:36AM 51.2303 -0.3596 292° West 264 304 10,000  Level FlightAware ADS-B
06:36AM 51.2329 -0.3697 302° West 266 306 10,000  Level FlightAware ADS-B
06:36AM 51.2351 -0.3754 309° West 266 306 10,000  Level FlightAware ADS-B
06:36AM 51.2379 -0.3809 317° Northwest 266 306 10,000  Level FlightAware ADS-B
06:36AM 51.2413 -0.3860 324° Northwest 268 308 10,000  Level FlightAware ADS-B
06:36AM 51.2481 -0.3938 330° Northwest 268 308 10,000  Level FlightAware ADS-B
06:37AM 51.2821 -0.4257 330° Northwest 266 306 10,000  Level FlightAware ADS-B
06:37AM 51.3062 -0.4477 336° Northwest 265 305 10,000  Level FlightAware ADS-B
06:37AM 51.3129 -0.4524 345° North 266 306 10,000  Level FlightAware ADS-B
06:37AM 51.3174 -0.4543 359° North 267 307 10,000 -540 Level FlightAware ADS-B
06:37AM 51.3280 -0.4546 13° North 267 307 9,900 -540 Descending FlightAware ADS-B
06:38AM 51.3327 -0.4528 21° North 265 305 9,900 -780 Level FlightAware ADS-B
06:38AM 51.3371 -0.4501 31° Northeast 263 303 9,800 -720 Descending FlightAware ADS-B
06:38AM 51.3420 -0.4455 41° Northeast 259 298 9,800 -600 Level FlightAware ADS-B
06:38AM 51.3463 -0.4395 51° Northeast 256 295 9,700 -600 Descending FlightAware ADS-B
06:38AM 51.3507 -0.4308 65° Northeast 251 289 9,700  Level FlightAware ADS-B
06:38AM 51.3538 -0.4202 76° East 246 283 9,700 -600 Level FlightAware ADS-B
06:38AM 51.3549 -0.4131 84° East 245 282 9,600 -720 Descending FlightAware ADS-B
06:38AM 51.3555 -0.4046 92° East 243 280 9,600  Level FlightAware ADS-B
06:38AM 51.3554 -0.3992 97° East 242 278 9,600 -1,020 Level FlightAware ADS-B
06:38AM 51.3550 -0.3939 104° East 242 278 9,500 -1,020 Descending FlightAware ADS-B
06:38AM 51.3542 -0.3887 109° East 242 278 9,500  Level FlightAware ADS-B
06:38AM 51.3525 -0.3809 121° Southeast 242 278 9,500 -540 Level FlightAware ADS-B
06:38AM 51.3485 -0.3703 133° Southeast 241 277 9,400 -480 Descending FlightAware ADS-B
06:39AM 51.3444 -0.3633 142° Southeast 239 275 9,400 -720 Level FlightAware ADS-B
06:39AM 51.3406 -0.3585 148° Southeast 239 275 9,300 -780 Descending FlightAware ADS-B
06:39AM 51.3368 -0.3548 149° Southeast 239 275 9,300  Level FlightAware ADS-B
06:39AM 51.3283 -0.3467 147° Southeast 240 276 9,300 -420 Level FlightAware ADS-B
06:39AM 51.3216 -0.3397 147° Southeast 241 277 9,200 -540 Descending FlightAware ADS-B
06:39AM 51.3076 -0.3251 148° Southeast 240 276 9,100 -420 Descending FlightAware ADS-B
06:39AM 51.2933 -0.3107 149° Southeast 237 273 9,000 -240 Descending FlightAware ADS-B
06:40AM 51.2784 -0.2963 166° South 236 272 9,000  Level FlightAware ADS-B
06:40AM 51.2640 -0.2903 186° South 239 275 9,000  Level FlightAware ADS-B
06:40AM 51.2568 -0.2915 196° South 241 277 9,000  Level FlightAware ADS-B
06:40AM 51.2514 -0.2940 205° Southwest 243 280 9,000  Level FlightAware ADS-B
06:40AM 51.2465 -0.2976 214° Southwest 244 281 9,000  Level FlightAware ADS-B
06:40AM 51.2416 -0.3028 223° Southwest 245 282 9,000  Level FlightAware ADS-B
06:40AM 51.2378 -0.3085 232° Southwest 247 284 9,000  Level FlightAware ADS-B
06:40AM 51.2348 -0.3146 241° Southwest 249 287 9,000  Level FlightAware ADS-B
06:41AM 51.2322 -0.3220 252° West 252 290 9,000  Level FlightAware ADS-B
06:41AM 51.2298 -0.3337 262° West 254 292 9,000  Level FlightAware ADS-B
06:41AM 51.2292 -0.3407 270° West 255 293 9,000  Level FlightAware ADS-B
06:41AM 51.2292 -0.3483 277° West 256 295 9,000  Level FlightAware ADS-B
06:41AM 51.2297 -0.3547 286° West 258 297 9,000  Level FlightAware ADS-B
06:41AM 51.2312 -0.3631 295° West 260 299 9,000  Level FlightAware ADS-B
06:41AM 51.2333 -0.3704 303° West 261 300 9,000  Level FlightAware ADS-B
06:41AM 51.2366 -0.3784 316° Northwest 263 303 9,000  Level FlightAware ADS-B
06:41AM 51.2426 -0.3876 325° Northwest 264 304 9,000  Level FlightAware ADS-B
06:41AM 51.2524 -0.3985 328° Northwest 263 303 9,000  Level FlightAware ADS-B
06:41AM 51.2612 -0.4073 330° Northwest 263 303 9,000  Level FlightAware ADS-B
06:42AM 51.2775 -0.4220 331° Northwest 262 302 9,000  Level FlightAware ADS-B
06:42AM 51.2937 -0.4366 332° Northwest 262 302 9,000  Level FlightAware ADS-B
06:42AM 51.3008 -0.4426 335° Northwest 263 303 9,000  Level FlightAware ADS-B
06:42AM 51.3041 -0.4450 340° North 262 302 9,000  Level FlightAware ADS-B
06:42AM 51.3079 -0.4472 346° North 262 302 9,000  Level FlightAware ADS-B
06:42AM 51.3119 -0.4488 352° North 261 300 9,000  Level FlightAware ADS-B
06:42AM 51.3162 -0.4498 North 261 300 9,000  Level FlightAware ADS-B
06:42AM 51.3231 -0.4497 North 259 298 9,000  Level FlightAware ADS-B
06:42AM 51.3276 -0.4487 12° North 258 297 9,000  Level FlightAware ADS-B
06:43AM 51.3357 -0.4458 15° North 257 296 9,000  Level FlightAware ADS-B
06:43AM 51.3497 -0.4400 15° North 257 296 9,000  Level FlightAware ADS-B
06:43AM 51.3626 -0.4346 14° North 256 295 9,000  Level FlightAware ADS-B
06:43AM 51.3806 -0.4271 12° North 256 295 9,000  Level FlightAware ADS-B
06:43AM 51.3883 -0.4246 North 256 295 9,000  Level FlightAware ADS-B
06:43AM 51.3935 -0.4239 358° North 259 298 9,000 -780 Level FlightAware ADS-B
06:43AM 51.3986 -0.4242 350° North 262 302 8,900 -780 Descending FlightAware ADS-B
06:44AM 51.4031 -0.4255 343° North 264 304 8,900  Level FlightAware ADS-B
06:44AM 51.4078 -0.4278 336° Northwest 265 305 8,900 -780 Level FlightAware ADS-B
06:44AM 51.4123 -0.4311 328° Northwest 266 306 8,800 -780 Descending FlightAware ADS-B
06:44AM 51.4161 -0.4348 322° Northwest 267 307 8,800  Level FlightAware ADS-B
06:44AM 51.4196 -0.4391 314° West 267 307 8,800  Level FlightAware ADS-B
06:44AM 51.4232 -0.4451 308° West 267 307 8,800 -780 Level FlightAware ADS-B
06:44AM 51.4259 -0.4507 299° West 266 306 8,700 -780 Descending FlightAware ADS-B
06:44AM 51.4290 -0.4596 290° West 265 305 8,700 -720 Level FlightAware ADS-B
06:44AM 51.4307 -0.4673 284° West 264 304 8,600 -780 Descending FlightAware ADS-B
06:44AM 51.4318 -0.4746 275° West 263 303 8,600  Level FlightAware ADS-B
06:44AM 51.4322 -0.4827 268° West 263 303 8,600  Level FlightAware ADS-B
06:44AM 51.4321 -0.4885 265° West 263 303 8,600 -900 Level FlightAware ADS-B
06:44AM 51.4317 -0.4951 261° West 264 304 8,500 -720 Descending FlightAware ADS-B
06:44AM 51.4307 -0.5048 258° West 264 304 8,500 -300 Level FlightAware ADS-B
06:45AM 51.4270 -0.5336 258° West 266 306 8,400 -600 Descending FlightAware ADS-B
06:45AM 51.4231 -0.5629 258° West 268 308 8,200 -780 Descending FlightAware ADS-B
06:45AM 51.4190 -0.5931 258° West 268 308 8,000 -780 Descending FlightAware ADS-B
06:45AM 51.4150 -0.6238 257° West 269 310 7,800 -840 Descending FlightAware ADS-B
06:46AM 51.4114 -0.6498 257° West 268 308 7,600 -720 Descending FlightAware ADS-B
06:46AM 51.4078 -0.6751 257° West 265 305 7,500 -660 Descending FlightAware ADS-B
06:46AM 51.4035 -0.7044 257° West 263 303 7,300 -600 Descending FlightAware ADS-B
06:46AM 51.3994 -0.7331 257° West 264 304 7,200 -600 Descending FlightAware ADS-B
06:47AM 51.3952 -0.7618 257° West 262 302 7,000 -960 Descending FlightAware ADS-B
06:47AM 51.3920 -0.7837 260° West 262 302 6,800 -1,200 Descending FlightAware ADS-B
06:47AM 51.3911 -0.7916 265° West 261 300 6,700 -1,200 Descending FlightAware ADS-B
06:47AM 51.3905 -0.8024 273° West 260 299 6,600 -1,140 Descending FlightAware ADS-B
06:47AM 51.3908 -0.8115 282° West 257 296 6,500 -780 Descending FlightAware ADS-B
06:47AM 51.3916 -0.8177 287° West 255 293 6,500 -780 Level FlightAware ADS-B
06:47AM 51.3932 -0.8263 292° West 253 291 6,400 -600 Descending FlightAware ADS-B
06:47AM 51.3951 -0.8339 293° West 250 288 6,400 -600 Level FlightAware ADS-B
06:47AM 51.3978 -0.8440 297° West 245 282 6,300 -600 Descending FlightAware ADS-B
06:47AM 51.3999 -0.8507 304° West 242 278 6,300  Level FlightAware ADS-B
06:48AM 51.4023 -0.8565 311° West 235 270 6,300  Level FlightAware ADS-B
06:48AM 51.4050 -0.8614 318° Northwest 228 262 6,300 -900 Level FlightAware ADS-B
06:48AM 51.4075 -0.8650 327° Northwest 224 258 6,200 -780 Descending FlightAware ADS-B
06:48AM 51.4115 -0.8692 336° Northwest 216 249 6,200  Level FlightAware ADS-B
06:48AM 51.4151 -0.8717 343° North 208 239 6,200  Level FlightAware ADS-B
06:48AM 51.4179 -0.8731 346° North 201 231 6,200  Level FlightAware ADS-B
06:48AM 51.4205 -0.8742 350° North 196 226 6,200 -780 Level FlightAware ADS-B
06:48AM 51.4254 -0.8756 354° North 187 215 6,100 -1,440 Descending FlightAware ADS-B
06:48AM 51.4379 -0.8778 North 174 200 5,700 -1,500 Descending FlightAware ADS-B
06:48AM 51.4414 -0.8772 16° North 170 196 5,600 -1,740 Descending FlightAware ADS-B
06:48AM 51.4441 -0.8760 25° Northeast 167 192 5,500 -1,740 Descending FlightAware ADS-B
06:48AM 51.4466 -0.8741 38° Northeast 164 189 5,400 -1,740 Descending FlightAware ADS-B
06:48AM 51.4486 -0.8716 50° Northeast 164 189 5,300 -1,200 Descending FlightAware ADS-B
06:49AM 51.4516 -0.8658 60° Northeast 164 189 5,200 -1,140 Descending FlightAware ADS-B
06:49AM 51.4531 -0.8616 61° Northeast 164 189 5,100 -1,740 Descending FlightAware ADS-B
06:49AM 51.4543 -0.8582 65° Northeast 165 190 5,000 -960 Descending FlightAware ADS-B
06:49AM 51.4574 -0.8476 64° Northeast 164 189 4,900 -960 Descending FlightAware ADS-B
06:49AM 51.4628 -0.8299 63° Northeast 164 189 4,600 -1,200 Descending FlightAware ADS-B
06:49AM 51.4681 -0.8132 63° Northeast 164 189 4,300 -1,200 Descending FlightAware ADS-B
06:50AM 51.4736 -0.7959 68° East 165 190 4,000 -1,200 Descending FlightAware ADS-B
06:50AM 51.4749 -0.7907 76° East 165 190 3,900 -780 Descending FlightAware ADS-B
06:50AM 51.4755 -0.7869 80° East 165 190 3,900 -900 Level FlightAware ADS-B
06:50AM 51.4761 -0.7817 87° East 165 190 3,800 -600 Descending FlightAware ADS-B
06:50AM 51.4763 -0.7753 89° East 167 192 3,800 -960 Level FlightAware ADS-B
06:50AM 51.4764 -0.7664 91° East 168 193 3,600 -1,200 Descending FlightAware ADS-B
06:50AM 51.4762 -0.7487 90° East 168 193 3,400 -900 Descending FlightAware ADS-B
06:50AM 51.4762 -0.7402 90° East 168 193 3,300 -1,140 Descending FlightAware ADS-B
06:51AM 51.4762 -0.7343 90° East 168 193 3,200 -900 Descending FlightAware ADS-B
06:51AM 51.4763 -0.7154 89° East 162 186 3,000 -780 Descending FlightAware ADS-B
06:51AM 51.4765 -0.6972 89° East 151 174 2,800 -960 Descending FlightAware ADS-B
06:51AM 51.4766 -0.6796 89° East 150 173 2,500 -1,020 Descending FlightAware ADS-B
06:52AM 51.4767 -0.6625 89° East 150 173 2,300 -840 Descending FlightAware ADS-B
06:52AM 51.4768 -0.6461 89° East 150 173 2,100 -780 Descending FlightAware ADS-B
06:52AM 51.4769 -0.6287 90° East 148 170 1,900 -780 Descending FlightAware ADS-B
06:52AM 51.4769 -0.6106 90° East 150 173 1,700 -900 Descending FlightAware ADS-B
06:53AM 51.4770 -0.5904 97° East 151 174 1,400 -1,020 Descending FlightAware ADS-B
07:00AM 51.4667 -0.4500 97° East  Level FlightAware Approximate